sensor_id;sensor_type;location;lat;lon;timestamp;temperature;humidity
11894;DHT22;6006;49.696;8.662;2023-11-21T00:00:42;8.80;99.90
11894;DHT22;6006;49.696;8.662;2023-11-21T00:03:09;8.90;99.90
11894;DHT22;6006;49.696;8.662;2023-11-21T00:05:38;8.80;99.90
11894;DHT22;6006;49.696;8.662;2023-11-21T00:08:07;8.90;99.90
11894;DHT22;6006;49.696;8.662;2023-11-21T00:10:34;8.80;99.90
11894;DHT22;6006;49.696;8.662;2023-11-21T00:13:03;8.90;99.90
11894;DHT22;6006;49.696;8.662;2023-11-21T00:15:30;8.80;99.90
11894;DHT22;6006;49.696;8.662;2023-11-21T00:17:57;8.90;99.90
11894;DHT22;6006;49.696;8.662;2023-11-21T00:20:24;8.90;99.90
11894;DHT22;6006;49.696;8.662;2023-11-21T00:22:52;8.90;99.90
11894;DHT22;6006;49.696;8.662;2023-11-21T00:25:19;8.90;99.90
11894;DHT22;6006;49.696;8.662;2023-11-21T00:27:46;8.90;99.90
11894;DHT22;6006;49.696;8.662;2023-11-21T00:30:13;8.90;99.90
11894;DHT22;6006;49.696;8.662;2023-11-21T00:32:41;8.90;99.90
11894;DHT22;6006;49.696;8.662;2023-11-21T00:35:09;8.80;99.90
11894;DHT22;6006;49.696;8.662;2023-11-21T00:37:35;8.80;99.90
11894;DHT22;6006;49.696;8.662;2023-11-21T00:40:07;8.90;99.90
11894;DHT22;6006;49.696;8.662;2023-11-21T00:42:34;8.80;99.90
11894;DHT22;6006;49.696;8.662;2023-11-21T00:45:01;8.80;99.90
11894;DHT22;6006;49.696;8.662;2023-11-21T00:47:29;8.80;99.90
11894;DHT22;6006;49.696;8.662;2023-11-21T00:49:56;8.90;99.90
11894;DHT22;6006;49.696;8.662;2023-11-21T00:52:23;8.90;99.90
11894;DHT22;6006;49.696;8.662;2023-11-21T00:54:50;8.90;99.90
11894;DHT22;6006;49.696;8.662;2023-11-21T00:57:18;8.90;99.90
11894;DHT22;6006;49.696;8.662;2023-11-21T00:59:45;8.90;99.90
11894;DHT22;6006;49.696;8.662;2023-11-21T01:02:12;8.90;99.90
11894;DHT22;6006;49.696;8.662;2023-11-21T01:04:39;8.90;99.90
11894;DHT22;6006;49.696;8.662;2023-11-21T01:07:05;8.80;99.90
11894;DHT22;6006;49.696;8.662;2023-11-21T01:09:32;8.90;99.90
11894;DHT22;6006;49.696;8.662;2023-11-21T01:11:59;8.90;99.90
11894;DHT22;6006;49.696;8.662;2023-11-21T01:14:27;8.90;99.90
11894;DHT22;6006;49.696;8.662;2023-11-21T01:16:54;8.90;99.90
11894;DHT22;6006;49.696;8.662;2023-11-21T01:19:21;8.90;99.90
11894;DHT22;6006;49.696;8.662;2023-11-21T01:21:49;8.90;99.90
11894;DHT22;6006;49.696;8.662;2023-11-21T01:24:17;8.90;99.90
11894;DHT22;6006;49.696;8.662;2023-11-21T01:26:44;8.90;99.90
11894;DHT22;6006;49.696;8.662;2023-11-21T01:29:12;8.90;99.90
11894;DHT22;6006;49.696;8.662;2023-11-21T01:31:40;8.90;99.90
11894;DHT22;6006;49.696;8.662;2023-11-21T01:34:07;8.90;99.90
11894;DHT22;6006;49.696;8.662;2023-11-21T01:36:34;8.80;99.90
11894;DHT22;6006;49.696;8.662;2023-11-21T01:39:01;8.80;99.90
11894;DHT22;6006;49.696;8.662;2023-11-21T01:41:28;8.80;99.90
11894;DHT22;6006;49.696;8.662;2023-11-21T01:43:56;8.90;99.90
11894;DHT22;6006;49.696;8.662;2023-11-21T01:46:24;8.90;99.90
11894;DHT22;6006;49.696;8.662;2023-11-21T01:48:52;9.00;99.90
11894;DHT22;6006;49.696;8.662;2023-11-21T01:51:20;8.90;99.90
11894;DHT22;6006;49.696;8.662;2023-11-21T01:53:47;8.90;99.90
11894;DHT22;6006;49.696;8.662;2023-11-21T01:56:14;8.90;99.90
11894;DHT22;6006;49.696;8.662;2023-11-21T01:58:42;8.90;99.90
11894;DHT22;6006;49.696;8.662;2023-11-21T02:01:09;8.90;99.90
11894;DHT22;6006;49.696;8.662;2023-11-21T02:03:36;8.90;99.90
11894;DHT22;6006;49.696;8.662;2023-11-21T02:06:05;9.00;99.90
11894;DHT22;6006;49.696;8.662;2023-11-21T02:08:33;8.90;99.90
11894;DHT22;6006;49.696;8.662;2023-11-21T02:11:00;8.90;99.90
11894;DHT22;6006;49.696;8.662;2023-11-21T02:13:28;8.90;99.90
11894;DHT22;6006;49.696;8.662;2023-11-21T02:15:55;8.90;99.90
11894;DHT22;6006;49.696;8.662;2023-11-21T02:18:21;8.90;99.90
11894;DHT22;6006;49.696;8.662;2023-11-21T02:20:48;8.90;99.90
11894;DHT22;6006;49.696;8.662;2023-11-21T02:23:16;8.90;99.90
11894;DHT22;6006;49.696;8.662;2023-11-21T02:25:43;8.90;99.90
11894;DHT22;6006;49.696;8.662;2023-11-21T02:28:10;9.00;99.90
11894;DHT22;6006;49.696;8.662;2023-11-21T02:30:38;9.20;99.90
11894;DHT22;6006;49.696;8.662;2023-11-21T02:33:05;9.00;99.90
11894;DHT22;6006;49.696;8.662;2023-11-21T02:35:33;9.00;99.90
11894;DHT22;6006;49.696;8.662;2023-11-21T02:38:00;9.00;99.90
11894;DHT22;6006;49.696;8.662;2023-11-21T02:40:29;9.00;99.90
11894;DHT22;6006;49.696;8.662;2023-11-21T02:42:56;9.00;99.90
11894;DHT22;6006;49.696;8.662;2023-11-21T02:45:24;9.00;99.90
11894;DHT22;6006;49.696;8.662;2023-11-21T02:47:51;9.00;99.90
11894;DHT22;6006;49.696;8.662;2023-11-21T02:50:22;8.90;99.90
11894;DHT22;6006;49.696;8.662;2023-11-21T02:52:49;9.00;99.90
11894;DHT22;6006;49.696;8.662;2023-11-21T02:55:16;9.00;99.90
11894;DHT22;6006;49.696;8.662;2023-11-21T02:57:44;9.00;99.90
11894;DHT22;6006;49.696;8.662;2023-11-21T03:00:12;8.90;99.90
11894;DHT22;6006;49.696;8.662;2023-11-21T03:02:40;9.00;99.90
11894;DHT22;6006;49.696;8.662;2023-11-21T03:05:08;9.00;99.90
11894;DHT22;6006;49.696;8.662;2023-11-21T03:07:36;9.00;99.90
11894;DHT22;6006;49.696;8.662;2023-11-21T03:10:03;9.00;99.90
11894;DHT22;6006;49.696;8.662;2023-11-21T03:12:30;9.00;99.90
11894;DHT22;6006;49.696;8.662;2023-11-21T03:14:58;9.00;99.90
11894;DHT22;6006;49.696;8.662;2023-11-21T03:17:27;9.00;99.90
11894;DHT22;6006;49.696;8.662;2023-11-21T03:19:54;9.00;99.90
11894;DHT22;6006;49.696;8.662;2023-11-21T03:22:22;9.00;99.90
11894;DHT22;6006;49.696;8.662;2023-11-21T03:24:50;8.90;99.90
11894;DHT22;6006;49.696;8.662;2023-11-21T03:27:17;9.00;99.90
11894;DHT22;6006;49.696;8.662;2023-11-21T03:29:43;9.00;99.90
11894;DHT22;6006;49.696;8.662;2023-11-21T03:32:13;9.00;99.90
11894;DHT22;6006;49.696;8.662;2023-11-21T03:34:53;8.90;99.90
11894;DHT22;6006;49.696;8.662;2023-11-21T03:37:22;9.00;99.90
11894;DHT22;6006;49.696;8.662;2023-11-21T03:39:48;9.00;99.90
11894;DHT22;6006;49.696;8.662;2023-11-21T03:42:15;9.00;99.90
11894;DHT22;6006;49.696;8.662;2023-11-21T03:44:42;8.90;99.90
11894;DHT22;6006;49.696;8.662;2023-11-21T03:47:09;9.00;99.90
11894;DHT22;6006;49.696;8.662;2023-11-21T03:49:37;9.00;99.90
11894;DHT22;6006;49.696;8.662;2023-11-21T03:52:05;8.90;99.90
11894;DHT22;6006;49.696;8.662;2023-11-21T03:54:33;9.00;99.90
11894;DHT22;6006;49.696;8.662;2023-11-21T03:57:00;9.00;99.90
11894;DHT22;6006;49.696;8.662;2023-11-21T03:59:27;9.00;99.90
11894;DHT22;6006;49.696;8.662;2023-11-21T04:01:55;9.00;99.90
11894;DHT22;6006;49.696;8.662;2023-11-21T04:04:22;9.00;99.90
11894;DHT22;6006;49.696;8.662;2023-11-21T04:06:51;9.00;99.90
11894;DHT22;6006;49.696;8.662;2023-11-21T04:09:18;9.00;99.90
11894;DHT22;6006;49.696;8.662;2023-11-21T04:11:45;8.90;99.90
11894;DHT22;6006;49.696;8.662;2023-11-21T04:14:13;9.00;99.90
11894;DHT22;6006;49.696;8.662;2023-11-21T04:16:40;9.00;99.90
11894;DHT22;6006;49.696;8.662;2023-11-21T04:19:07;9.00;99.90
11894;DHT22;6006;49.696;8.662;2023-11-21T04:21:36;8.90;99.90
11894;DHT22;6006;49.696;8.662;2023-11-21T04:24:05;9.00;99.90
11894;DHT22;6006;49.696;8.662;2023-11-21T04:26:32;9.00;99.90
11894;DHT22;6006;49.696;8.662;2023-11-21T04:28:58;9.00;99.90
11894;DHT22;6006;49.696;8.662;2023-11-21T04:31:25;9.00;99.90
11894;DHT22;6006;49.696;8.662;2023-11-21T04:33:52;9.00;99.90
11894;DHT22;6006;49.696;8.662;2023-11-21T04:36:19;9.00;99.90
11894;DHT22;6006;49.696;8.662;2023-11-21T04:38:46;9.10;99.90
11894;DHT22;6006;49.696;8.662;2023-11-21T04:41:14;9.10;99.90
11894;DHT22;6006;49.696;8.662;2023-11-21T04:43:41;9.10;99.90
11894;DHT22;6006;49.696;8.662;2023-11-21T04:46:09;9.10;99.90
11894;DHT22;6006;49.696;8.662;2023-11-21T04:48:36;9.00;99.90
11894;DHT22;6006;49.696;8.662;2023-11-21T04:51:03;9.00;99.90
11894;DHT22;6006;49.696;8.662;2023-11-21T04:53:30;9.10;99.90
11894;DHT22;6006;49.696;8.662;2023-11-21T04:55:57;9.00;99.90
11894;DHT22;6006;49.696;8.662;2023-11-21T04:58:26;9.10;99.90
11894;DHT22;6006;49.696;8.662;2023-11-21T05:00:53;9.10;99.90
11894;DHT22;6006;49.696;8.662;2023-11-21T05:03:20;9.00;99.90
11894;DHT22;6006;49.696;8.662;2023-11-21T05:05:49;9.00;99.90
11894;DHT22;6006;49.696;8.662;2023-11-21T05:08:16;9.00;99.90
11894;DHT22;6006;49.696;8.662;2023-11-21T05:10:44;9.00;99.90
11894;DHT22;6006;49.696;8.662;2023-11-21T05:13:11;9.10;99.90
11894;DHT22;6006;49.696;8.662;2023-11-21T05:15:39;9.10;99.90
11894;DHT22;6006;49.696;8.662;2023-11-21T05:18:07;9.10;99.90
11894;DHT22;6006;49.696;8.662;2023-11-21T05:20:33;9.00;99.90
11894;DHT22;6006;49.696;8.662;2023-11-21T05:23:00;9.00;99.90
11894;DHT22;6006;49.696;8.662;2023-11-21T05:25:27;9.10;99.90
11894;DHT22;6006;49.696;8.662;2023-11-21T05:27:54;9.10;99.90
11894;DHT22;6006;49.696;8.662;2023-11-21T05:30:21;9.10;99.90
11894;DHT22;6006;49.696;8.662;2023-11-21T05:32:50;9.10;99.90
11894;DHT22;6006;49.696;8.662;2023-11-21T05:35:17;9.10;99.90
11894;DHT22;6006;49.696;8.662;2023-11-21T05:37:44;9.10;99.90
11894;DHT22;6006;49.696;8.662;2023-11-21T05:40:11;9.10;99.90
11894;DHT22;6006;49.696;8.662;2023-11-21T05:42:39;9.10;99.90
11894;DHT22;6006;49.696;8.662;2023-11-21T05:45:07;9.10;99.90
11894;DHT22;6006;49.696;8.662;2023-11-21T05:47:37;9.10;99.90
11894;DHT22;6006;49.696;8.662;2023-11-21T05:50:07;9.10;99.90
11894;DHT22;6006;49.696;8.662;2023-11-21T05:52:38;9.10;99.90
11894;DHT22;6006;49.696;8.662;2023-11-21T05:55:05;9.10;99.90
11894;DHT22;6006;49.696;8.662;2023-11-21T05:57:34;9.00;99.90
11894;DHT22;6006;49.696;8.662;2023-11-21T06:00:03;9.00;99.90
11894;DHT22;6006;49.696;8.662;2023-11-21T06:02:37;9.00;99.90
11894;DHT22;6006;49.696;8.662;2023-11-21T06:05:05;9.10;99.90
11894;DHT22;6006;49.696;8.662;2023-11-21T06:07:32;9.00;99.90
11894;DHT22;6006;49.696;8.662;2023-11-21T06:09:59;9.00;99.90
11894;DHT22;6006;49.696;8.662;2023-11-21T06:12:28;9.10;99.90
11894;DHT22;6006;49.696;8.662;2023-11-21T06:14:55;9.00;99.90
11894;DHT22;6006;49.696;8.662;2023-11-21T06:17:21;9.10;99.90
11894;DHT22;6006;49.696;8.662;2023-11-21T06:19:50;9.00;99.90
11894;DHT22;6006;49.696;8.662;2023-11-21T06:22:19;9.10;99.90
11894;DHT22;6006;49.696;8.662;2023-11-21T06:24:46;9.10;99.90
11894;DHT22;6006;49.696;8.662;2023-11-21T06:27:13;9.10;99.90
11894;DHT22;6006;49.696;8.662;2023-11-21T06:29:41;9.10;99.90
11894;DHT22;6006;49.696;8.662;2023-11-21T06:32:09;9.10;99.90
11894;DHT22;6006;49.696;8.662;2023-11-21T06:34:35;9.10;99.90
11894;DHT22;6006;49.696;8.662;2023-11-21T06:37:02;9.10;99.90
11894;DHT22;6006;49.696;8.662;2023-11-21T06:39:30;9.10;99.90
11894;DHT22;6006;49.696;8.662;2023-11-21T06:41:58;9.10;99.90
11894;DHT22;6006;49.696;8.662;2023-11-21T06:44:25;9.10;99.90
11894;DHT22;6006;49.696;8.662;2023-11-21T06:46:52;9.30;99.90
11894;DHT22;6006;49.696;8.662;2023-11-21T06:49:19;9.10;99.90
11894;DHT22;6006;49.696;8.662;2023-11-21T06:51:46;9.00;99.90
11894;DHT22;6006;49.696;8.662;2023-11-21T06:54:13;9.00;99.90
11894;DHT22;6006;49.696;8.662;2023-11-21T06:56:41;9.00;99.90
11894;DHT22;6006;49.696;8.662;2023-11-21T06:59:08;9.10;99.90
11894;DHT22;6006;49.696;8.662;2023-11-21T07:01:36;9.10;99.90
11894;DHT22;6006;49.696;8.662;2023-11-21T07:04:05;9.10;99.90
11894;DHT22;6006;49.696;8.662;2023-11-21T07:06:32;9.10;99.90
11894;DHT22;6006;49.696;8.662;2023-11-21T07:08:59;9.10;99.90
11894;DHT22;6006;49.696;8.662;2023-11-21T07:11:26;9.10;99.90
11894;DHT22;6006;49.696;8.662;2023-11-21T07:13:55;9.10;99.90
11894;DHT22;6006;49.696;8.662;2023-11-21T07:16:22;9.10;99.90
11894;DHT22;6006;49.696;8.662;2023-11-21T07:18:49;8.90;99.90
11894;DHT22;6006;49.696;8.662;2023-11-21T07:21:16;8.80;99.90
11894;DHT22;6006;49.696;8.662;2023-11-21T07:23:43;8.80;99.90
11894;DHT22;6006;49.696;8.662;2023-11-21T07:26:10;8.80;99.90
11894;DHT22;6006;49.696;8.662;2023-11-21T07:28:37;8.80;99.90
11894;DHT22;6006;49.696;8.662;2023-11-21T07:31:05;8.80;99.90
11894;DHT22;6006;49.696;8.662;2023-11-21T07:33:32;8.80;99.90
11894;DHT22;6006;49.696;8.662;2023-11-21T07:35:59;8.80;99.90
11894;DHT22;6006;49.696;8.662;2023-11-21T07:38:26;8.80;99.90
11894;DHT22;6006;49.696;8.662;2023-11-21T07:40:53;8.80;99.90
11894;DHT22;6006;49.696;8.662;2023-11-21T07:43:20;8.80;99.90
11894;DHT22;6006;49.696;8.662;2023-11-21T07:45:47;8.80;99.90
11894;DHT22;6006;49.696;8.662;2023-11-21T07:48:16;8.90;99.90
11894;DHT22;6006;49.696;8.662;2023-11-21T07:50:43;8.80;99.90
11894;DHT22;6006;49.696;8.662;2023-11-21T07:53:09;8.90;99.90
11894;DHT22;6006;49.696;8.662;2023-11-21T07:55:36;8.90;99.90
11894;DHT22;6006;49.696;8.662;2023-11-21T07:58:03;9.00;99.90
11894;DHT22;6006;49.696;8.662;2023-11-21T08:00:30;9.00;99.90
11894;DHT22;6006;49.696;8.662;2023-11-21T08:02:57;9.10;99.90
11894;DHT22;6006;49.696;8.662;2023-11-21T08:05:25;9.00;99.90
11894;DHT22;6006;49.696;8.662;2023-11-21T08:08:11;9.10;99.90
11894;DHT22;6006;49.696;8.662;2023-11-21T08:10:38;9.10;99.90
11894;DHT22;6006;49.696;8.662;2023-11-21T08:13:05;9.00;99.90
11894;DHT22;6006;49.696;8.662;2023-11-21T08:15:34;9.10;99.90
11894;DHT22;6006;49.696;8.662;2023-11-21T08:18:02;9.10;99.90
11894;DHT22;6006;49.696;8.662;2023-11-21T08:20:31;9.20;99.90
11894;DHT22;6006;49.696;8.662;2023-11-21T08:22:58;9.20;99.90
11894;DHT22;6006;49.696;8.662;2023-11-21T08:25:25;9.20;99.90
11894;DHT22;6006;49.696;8.662;2023-11-21T08:27:58;9.20;99.90
11894;DHT22;6006;49.696;8.662;2023-11-21T08:30:26;9.30;99.90
11894;DHT22;6006;49.696;8.662;2023-11-21T08:32:55;9.20;99.90
11894;DHT22;6006;49.696;8.662;2023-11-21T08:35:23;9.10;99.90
11894;DHT22;6006;49.696;8.662;2023-11-21T08:37:52;9.10;99.90
11894;DHT22;6006;49.696;8.662;2023-11-21T08:40:20;9.20;99.90
11894;DHT22;6006;49.696;8.662;2023-11-21T08:42:47;9.30;99.90
11894;DHT22;6006;49.696;8.662;2023-11-21T08:45:15;9.30;99.90
11894;DHT22;6006;49.696;8.662;2023-11-21T08:47:43;9.30;99.90
11894;DHT22;6006;49.696;8.662;2023-11-21T08:50:11;9.20;99.90
11894;DHT22;6006;49.696;8.662;2023-11-21T08:52:38;9.30;99.90
11894;DHT22;6006;49.696;8.662;2023-11-21T08:55:07;9.30;99.90
11894;DHT22;6006;49.696;8.662;2023-11-21T08:57:34;9.40;99.90
11894;DHT22;6006;49.696;8.662;2023-11-21T09:00:02;9.40;99.90
11894;DHT22;6006;49.696;8.662;2023-11-21T09:02:30;9.40;99.90
11894;DHT22;6006;49.696;8.662;2023-11-21T09:04:59;9.50;99.90
11894;DHT22;6006;49.696;8.662;2023-11-21T09:07:28;9.50;99.90
11894;DHT22;6006;49.696;8.662;2023-11-21T09:09:55;9.50;99.90
11894;DHT22;6006;49.696;8.662;2023-11-21T09:12:23;9.60;99.90
11894;DHT22;6006;49.696;8.662;2023-11-21T09:14:51;9.60;99.90
11894;DHT22;6006;49.696;8.662;2023-11-21T09:17:18;9.60;99.90
11894;DHT22;6006;49.696;8.662;2023-11-21T09:19:45;9.70;99.90
11894;DHT22;6006;49.696;8.662;2023-11-21T09:22:15;9.70;99.90
11894;DHT22;6006;49.696;8.662;2023-11-21T09:24:43;9.80;99.90
11894;DHT22;6006;49.696;8.662;2023-11-21T09:27:10;9.80;99.90
11894;DHT22;6006;49.696;8.662;2023-11-21T09:29:38;9.80;99.90
11894;DHT22;6006;49.696;8.662;2023-11-21T09:32:05;9.80;99.90
11894;DHT22;6006;49.696;8.662;2023-11-21T09:34:34;9.70;99.90
11894;DHT22;6006;49.696;8.662;2023-11-21T09:37:03;9.70;99.90
11894;DHT22;6006;49.696;8.662;2023-11-21T09:39:32;9.80;99.90
11894;DHT22;6006;49.696;8.662;2023-11-21T09:42:04;9.80;99.90
11894;DHT22;6006;49.696;8.662;2023-11-21T09:44:35;9.80;99.90
11894;DHT22;6006;49.696;8.662;2023-11-21T09:47:04;9.80;99.90
11894;DHT22;6006;49.696;8.662;2023-11-21T09:49:36;9.70;99.90
11894;DHT22;6006;49.696;8.662;2023-11-21T09:52:04;9.60;99.90
11894;DHT22;6006;49.696;8.662;2023-11-21T09:54:34;9.70;99.90
11894;DHT22;6006;49.696;8.662;2023-11-21T09:57:02;9.80;99.90
11894;DHT22;6006;49.696;8.662;2023-11-21T09:59:31;9.70;99.90
11894;DHT22;6006;49.696;8.662;2023-11-21T10:01:58;9.80;99.90
11894;DHT22;6006;49.696;8.662;2023-11-21T10:04:27;9.90;99.90
11894;DHT22;6006;49.696;8.662;2023-11-21T10:06:54;9.90;99.90
11894;DHT22;6006;49.696;8.662;2023-11-21T10:09:23;10.00;99.90
11894;DHT22;6006;49.696;8.662;2023-11-21T10:11:52;10.10;99.90
11894;DHT22;6006;49.696;8.662;2023-11-21T10:14:24;10.10;99.90
11894;DHT22;6006;49.696;8.662;2023-11-21T10:16:55;10.00;99.90
11894;DHT22;6006;49.696;8.662;2023-11-21T10:19:23;10.20;99.90
11894;DHT22;6006;49.696;8.662;2023-11-21T10:21:51;10.20;99.90
11894;DHT22;6006;49.696;8.662;2023-11-21T10:24:20;10.20;99.90
11894;DHT22;6006;49.696;8.662;2023-11-21T10:26:48;10.20;99.90
11894;DHT22;6006;49.696;8.662;2023-11-21T10:29:16;10.20;99.90
11894;DHT22;6006;49.696;8.662;2023-11-21T10:31:44;10.10;99.90
11894;DHT22;6006;49.696;8.662;2023-11-21T10:34:15;10.10;99.90
11894;DHT22;6006;49.696;8.662;2023-11-21T10:36:42;10.20;99.90
11894;DHT22;6006;49.696;8.662;2023-11-21T10:39:14;10.30;99.90
11894;DHT22;6006;49.696;8.662;2023-11-21T10:41:44;10.40;99.90
11894;DHT22;6006;49.696;8.662;2023-11-21T10:44:14;10.40;99.90
11894;DHT22;6006;49.696;8.662;2023-11-21T10:46:46;10.50;99.90
11894;DHT22;6006;49.696;8.662;2023-11-21T10:49:16;10.50;86.70
11894;DHT22;6006;49.696;8.662;2023-11-21T10:51:44;10.60;1.00
11894;DHT22;6006;49.696;8.662;2023-11-21T10:54:13;10.50;1.00
11894;DHT22;6006;49.696;8.662;2023-11-21T10:56:40;10.60;1.00
11894;DHT22;6006;49.696;8.662;2023-11-21T10:59:10;10.70;1.00
11894;DHT22;6006;49.696;8.662;2023-11-21T11:01:40;10.70;1.00
11894;DHT22;6006;49.696;8.662;2023-11-21T11:04:09;10.60;1.00
11894;DHT22;6006;49.696;8.662;2023-11-21T11:06:43;10.60;1.00
11894;DHT22;6006;49.696;8.662;2023-11-21T11:09:13;10.40;1.00
11894;DHT22;6006;49.696;8.662;2023-11-21T11:11:42;10.50;1.00
11894;DHT22;6006;49.696;8.662;2023-11-21T11:14:11;10.50;1.00
11894;DHT22;6006;49.696;8.662;2023-11-21T11:16:39;10.40;1.00
11894;DHT22;6006;49.696;8.662;2023-11-21T11:19:06;10.60;1.00
11894;DHT22;6006;49.696;8.662;2023-11-21T11:21:42;10.70;1.00
11894;DHT22;6006;49.696;8.662;2023-11-21T11:24:32;10.90;1.00
11894;DHT22;6006;49.696;8.662;2023-11-21T11:27:06;10.90;1.00
11894;DHT22;6006;49.696;8.662;2023-11-21T11:29:43;10.80;1.00
11894;DHT22;6006;49.696;8.662;2023-11-21T11:32:17;10.90;1.00
11894;DHT22;6006;49.696;8.662;2023-11-21T11:34:48;11.00;99.90
11894;DHT22;6006;49.696;8.662;2023-11-21T11:37:50;11.10;1.00
11894;DHT22;6006;49.696;8.662;2023-11-21T11:40:18;11.30;99.90
11894;DHT22;6006;49.696;8.662;2023-11-21T11:42:58;11.20;99.90
11894;DHT22;6006;49.696;8.662;2023-11-21T11:45:32;10.90;90.00
11894;DHT22;6006;49.696;8.662;2023-11-21T11:48:01;10.70;99.90
11894;DHT22;6006;49.696;8.662;2023-11-21T11:50:29;10.70;99.90
11894;DHT22;6006;49.696;8.662;2023-11-21T11:53:12;10.50;99.90
11894;DHT22;6006;49.696;8.662;2023-11-21T11:55:41;10.40;99.90
11894;DHT22;6006;49.696;8.662;2023-11-21T11:58:08;10.30;1.00
11894;DHT22;6006;49.696;8.662;2023-11-21T12:00:35;10.30;1.00
11894;DHT22;6006;49.696;8.662;2023-11-21T12:03:06;10.60;1.00
11894;DHT22;6006;49.696;8.662;2023-11-21T12:05:34;10.90;99.90
11894;DHT22;6006;49.696;8.662;2023-11-21T12:08:05;11.20;1.00
11894;DHT22;6006;49.696;8.662;2023-11-21T12:10:34;11.40;1.00
11894;DHT22;6006;49.696;8.662;2023-11-21T12:13:05;11.90;99.90
11894;DHT22;6006;49.696;8.662;2023-11-21T12:15:33;11.80;99.90
11894;DHT22;6006;49.696;8.662;2023-11-21T12:18:27;11.90;99.90
11894;DHT22;6006;49.696;8.662;2023-11-21T12:20:56;12.10;99.90
11894;DHT22;6006;49.696;8.662;2023-11-21T12:23:23;12.10;1.00
11894;DHT22;6006;49.696;8.662;2023-11-21T12:25:51;12.20;71.60
11894;DHT22;6006;49.696;8.662;2023-11-21T12:28:19;12.20;1.00
11894;DHT22;6006;49.696;8.662;2023-11-21T12:30:48;12.30;1.00
11894;DHT22;6006;49.696;8.662;2023-11-21T12:33:15;11.90;99.90
11894;DHT22;6006;49.696;8.662;2023-11-21T12:35:43;11.60;1.00
11894;DHT22;6006;49.696;8.662;2023-11-21T12:38:10;11.60;1.00
11894;DHT22;6006;49.696;8.662;2023-11-21T12:40:37;11.50;1.00
11894;DHT22;6006;49.696;8.662;2023-11-21T12:43:03;11.40;99.90
11894;DHT22;6006;49.696;8.662;2023-11-21T12:45:32;11.40;99.90
11894;DHT22;6006;49.696;8.662;2023-11-21T12:48:00;11.50;99.90
11894;DHT22;6006;49.696;8.662;2023-11-21T12:50:33;11.40;99.90
11894;DHT22;6006;49.696;8.662;2023-11-21T12:53:02;11.30;1.00
11894;DHT22;6006;49.696;8.662;2023-11-21T12:55:31;11.30;1.00
11894;DHT22;6006;49.696;8.662;2023-11-21T12:58:00;11.20;33.90
11894;DHT22;6006;49.696;8.662;2023-11-21T13:00:36;11.20;99.90
11894;DHT22;6006;49.696;8.662;2023-11-21T13:03:05;11.10;1.00
11894;DHT22;6006;49.696;8.662;2023-11-21T13:05:34;11.10;95.20
11894;DHT22;6006;49.696;8.662;2023-11-21T13:08:05;11.20;99.90
11894;DHT22;6006;49.696;8.662;2023-11-21T13:10:36;11.20;99.90
11894;DHT22;6006;49.696;8.662;2023-11-21T13:13:05;11.20;99.90
11894;DHT22;6006;49.696;8.662;2023-11-21T13:15:39;11.20;99.90
11894;DHT22;6006;49.696;8.662;2023-11-21T13:18:06;11.20;99.90
11894;DHT22;6006;49.696;8.662;2023-11-21T13:20:34;11.20;99.90
11894;DHT22;6006;49.696;8.662;2023-11-21T13:23:08;11.10;99.90
11894;DHT22;6006;49.696;8.662;2023-11-21T13:25:37;11.10;1.00
11894;DHT22;6006;49.696;8.662;2023-11-21T13:28:07;11.00;1.00
11894;DHT22;6006;49.696;8.662;2023-11-21T13:30:36;11.00;25.50
11894;DHT22;6006;49.696;8.662;2023-11-21T13:33:06;11.00;1.00
11894;DHT22;6006;49.696;8.662;2023-11-21T13:35:34;11.00;1.00
11894;DHT22;6006;49.696;8.662;2023-11-21T13:38:05;11.10;1.00
11894;DHT22;6006;49.696;8.662;2023-11-21T13:40:32;11.00;99.90
11894;DHT22;6006;49.696;8.662;2023-11-21T13:43:04;11.00;99.90
11894;DHT22;6006;49.696;8.662;2023-11-21T13:45:31;11.00;99.90
11894;DHT22;6006;49.696;8.662;2023-11-21T13:47:59;11.00;45.10
11894;DHT22;6006;49.696;8.662;2023-11-21T13:50:26;11.00;1.00
11894;DHT22;6006;49.696;8.662;2023-11-21T13:52:58;11.10;1.00
11894;DHT22;6006;49.696;8.662;2023-11-21T13:55:28;11.20;50.50
11894;DHT22;6006;49.696;8.662;2023-11-21T13:57:55;11.10;1.00
11894;DHT22;6006;49.696;8.662;2023-11-21T14:00:22;11.20;99.90
11894;DHT22;6006;49.696;8.662;2023-11-21T14:03:12;11.10;99.90
11894;DHT22;6006;49.696;8.662;2023-11-21T14:05:46;11.10;99.90
11894;DHT22;6006;49.696;8.662;2023-11-21T14:08:17;11.00;51.60
11894;DHT22;6006;49.696;8.662;2023-11-21T14:10:46;10.90;99.90
11894;DHT22;6006;49.696;8.662;2023-11-21T14:13:16;10.90;1.00
11894;DHT22;6006;49.696;8.662;2023-11-21T14:15:44;11.00;99.90
11894;DHT22;6006;49.696;8.662;2023-11-21T14:18:15;10.90;1.00
11894;DHT22;6006;49.696;8.662;2023-11-21T14:20:44;10.90;11.40
11894;DHT22;6006;49.696;8.662;2023-11-21T14:23:11;10.70;1.00
11894;DHT22;6006;49.696;8.662;2023-11-21T14:25:38;10.60;1.00
11894;DHT22;6006;49.696;8.662;2023-11-21T14:28:07;10.70;1.00
11894;DHT22;6006;49.696;8.662;2023-11-21T14:30:37;10.70;99.90
11894;DHT22;6006;49.696;8.662;2023-11-21T14:33:05;10.80;99.90
11894;DHT22;6006;49.696;8.662;2023-11-21T14:35:35;10.80;99.90
11894;DHT22;6006;49.696;8.662;2023-11-21T14:38:02;10.80;1.00
11894;DHT22;6006;49.696;8.662;2023-11-21T14:40:30;10.80;1.00
11894;DHT22;6006;49.696;8.662;2023-11-21T14:42:59;10.80;1.00
11894;DHT22;6006;49.696;8.662;2023-11-21T14:45:26;10.80;1.00
11894;DHT22;6006;49.696;8.662;2023-11-21T14:47:54;10.70;1.00
11894;DHT22;6006;49.696;8.662;2023-11-21T14:50:31;10.50;99.90
11894;DHT22;6006;49.696;8.662;2023-11-21T14:53:14;10.40;1.00
11894;DHT22;6006;49.696;8.662;2023-11-21T14:55:41;10.30;99.90
11894;DHT22;6006;49.696;8.662;2023-11-21T14:58:20;10.20;99.90
11894;DHT22;6006;49.696;8.662;2023-11-21T15:00:55;10.10;99.90
11894;DHT22;6006;49.696;8.662;2023-11-21T15:03:25;10.10;1.00
11894;DHT22;6006;49.696;8.662;2023-11-21T15:06:09;10.20;1.00
11894;DHT22;6006;49.696;8.662;2023-11-21T15:08:50;10.10;99.90
11894;DHT22;6006;49.696;8.662;2023-11-21T15:11:25;10.10;1.00
11894;DHT22;6006;49.696;8.662;2023-11-21T15:13:56;10.10;1.00
11894;DHT22;6006;49.696;8.662;2023-11-21T15:16:23;10.10;1.00
11894;DHT22;6006;49.696;8.662;2023-11-21T15:18:51;10.10;1.00
11894;DHT22;6006;49.696;8.662;2023-11-21T15:21:18;10.10;1.00
11894;DHT22;6006;49.696;8.662;2023-11-21T15:23:48;10.00;99.90
11894;DHT22;6006;49.696;8.662;2023-11-21T15:26:16;9.90;1.00
11894;DHT22;6006;49.696;8.662;2023-11-21T15:29:02;9.90;99.90
11894;DHT22;6006;49.696;8.662;2023-11-21T15:31:28;9.80;1.00
11894;DHT22;6006;49.696;8.662;2023-11-21T15:33:55;9.70;1.00
11894;DHT22;6006;49.696;8.662;2023-11-21T15:36:25;9.70;1.00
11894;DHT22;6006;49.696;8.662;2023-11-21T15:38:53;9.50;63.40
11894;DHT22;6006;49.696;8.662;2023-11-21T15:41:20;9.40;99.90
11894;DHT22;6006;49.696;8.662;2023-11-21T15:43:47;9.40;1.00
11894;DHT22;6006;49.696;8.662;2023-11-21T15:46:16;9.30;99.90
11894;DHT22;6006;49.696;8.662;2023-11-21T15:48:43;9.30;99.90
11894;DHT22;6006;49.696;8.662;2023-11-21T15:51:15;9.30;99.90
11894;DHT22;6006;49.696;8.662;2023-11-21T15:53:44;9.30;1.00
11894;DHT22;6006;49.696;8.662;2023-11-21T15:56:12;9.30;1.00
11894;DHT22;6006;49.696;8.662;2023-11-21T15:58:39;9.40;1.00
11894;DHT22;6006;49.696;8.662;2023-11-21T16:01:08;9.40;1.00
11894;DHT22;6006;49.696;8.662;2023-11-21T16:03:35;9.40;1.00
11894;DHT22;6006;49.696;8.662;2023-11-21T16:06:02;9.40;1.00
11894;DHT22;6006;49.696;8.662;2023-11-21T16:08:30;9.40;99.90